Terminal Aerodrome Forecast
Issued by NWS

Home | Current Version | Previous Version | Text Only | Print | Product List | Glossary On
Versions: 1 2 3 4 5 6 7 8 9 10 11 12 13 14 15 16 17 18 19 20 21 22 23 24 25 26 27 28 29 30 31 32 33 34 35 36 37 38 39 40 41 42 43 44 45 46 47 48 49 50
000
FTUS41 KILN 170116 AAA
TAFLUK
TAF AMD
KLUK 170116Z 1701/1724 20006KT P6SM VCSH BKN060
      TEMPO 1701/1704 4SM -TSRA OVC040CB
     FM170600 20007KT 4SM -SHRA BR OVC028
     FM170900 20007KT 4SM -SHRA BR OVC015
     FM171200 23007KT 4SM -SHRA BR OVC009
     FM171600 25008KT P6SM VCSH OVC015
     FM171800 27008KT P6SM VCSH BKN025
     FM172200 29007KT P6SM BKN060=

USA.gov is the U.S. government's official web portal to all federal, state and local government web resources and services.